createdAt,value
2022-09-24T00:01:20.210Z,25.70
2022-09-24T00:06:23.523Z,26.40
2022-09-24T00:11:28.593Z,25.70
2022-09-24T00:16:34.638Z,25.90
2022-09-24T00:21:38.105Z,26.50
2022-09-24T00:31:53.036Z,26.00
2022-09-24T00:36:55.131Z,26.80
2022-09-24T00:41:57.164Z,26.10
2022-09-24T00:46:59.266Z,26.70
2022-09-24T00:52:01.864Z,26.80
2022-09-24T00:57:04.140Z,26.00
2022-09-24T01:02:07.463Z,26.00
2022-09-24T01:07:10.009Z,26.10
2022-09-24T01:12:39.101Z,26.10
2022-09-24T01:17:54.129Z,26.70
2022-09-24T01:22:58.892Z,26.60
2022-09-24T01:28:07.176Z,26.50
2022-09-24T01:33:16.059Z,26.50
2022-09-24T01:38:22.308Z,26.50
2022-09-24T01:43:27.326Z,26.60
2022-09-24T01:48:30.260Z,26.50
2022-09-24T01:53:47.168Z,26.40
2022-09-24T01:59:01.596Z,25.80
2022-09-24T02:04:11.868Z,25.90
2022-09-24T02:09:35.431Z,25.80
2022-09-24T02:14:44.174Z,26.40
2022-09-24T02:19:48.284Z,26.00
2022-09-24T02:24:53.748Z,26.50
2022-09-24T02:29:57.337Z,26.00
2022-09-24T02:35:03.487Z,26.70
2022-09-24T02:40:08.335Z,26.70
2022-09-24T02:45:11.794Z,26.70
2022-09-24T02:50:13.873Z,26.00
2022-09-24T02:55:15.970Z,26.50
2022-09-24T03:00:20.891Z,26.10
2022-09-24T03:05:22.891Z,26.00
2022-09-24T03:10:25.140Z,26.30
2022-09-24T03:15:27.183Z,26.80
2022-09-24T03:20:29.797Z,26.30
2022-09-24T03:25:32.186Z,26.50
2022-09-24T03:30:52.984Z,26.60
2022-09-24T03:36:11.114Z,26.50
2022-09-24T03:41:13.541Z,26.70
2022-09-24T03:46:17.138Z,26.40
2022-09-24T03:56:22.154Z,26.90
2022-09-24T04:01:24.257Z,26.70
2022-09-24T04:06:26.936Z,26.80
2022-09-24T04:11:28.996Z,26.80
2022-09-24T04:16:31.078Z,27.40
2022-09-24T04:21:33.140Z,26.90
2022-09-24T04:26:35.235Z,26.70
2022-09-24T04:31:39.513Z,27.30
2022-09-24T04:36:41.590Z,26.80
2022-09-24T04:41:43.903Z,27.20
2022-09-24T04:46:46.063Z,27.20
2022-09-24T04:51:48.084Z,26.60
2022-09-24T04:56:50.109Z,27.20
2022-09-24T05:01:54.316Z,26.60
2022-09-24T05:06:57.005Z,27.00
2022-09-24T05:11:59.605Z,27.10
2022-09-24T05:17:01.610Z,27.50
2022-09-24T05:22:03.690Z,27.10
2022-09-24T05:27:11.690Z,27.20
2022-09-24T05:32:15.949Z,27.50
2022-09-24T05:37:18.372Z,27.50
2022-09-24T05:42:20.585Z,27.40
2022-09-24T05:47:22.582Z,27.70
2022-09-24T05:52:24.695Z,27.60
2022-09-24T06:02:29.325Z,28.00
2022-09-24T06:07:31.387Z,28.70
2022-09-24T06:12:36.658Z,28.80
2022-09-24T06:17:38.716Z,28.40
2022-09-24T06:22:40.815Z,28.40
2022-09-24T06:27:42.788Z,29.10
2022-09-24T06:32:44.809Z,29.30
2022-09-24T06:37:49.081Z,29.50
2022-09-24T06:42:52.530Z,29.10
2022-09-24T06:47:58.769Z,29.20
2022-09-24T07:03:06.894Z,29.50
2022-09-24T07:08:09.049Z,30.10
2022-09-24T07:13:13.166Z,29.70
2022-09-24T07:18:15.347Z,29.70
2022-09-24T07:23:18.437Z,29.70
2022-09-24T07:28:20.501Z,29.70
2022-09-24T07:33:22.528Z,29.60
2022-09-24T07:38:25.548Z,30.00
2022-09-24T07:43:28.467Z,29.80
2022-09-24T07:48:30.411Z,30.40
2022-09-24T07:53:32.486Z,29.40
2022-09-24T07:58:35.512Z,29.30
2022-09-24T08:03:37.547Z,29.70
2022-09-24T08:08:40.170Z,29.50
2022-09-24T08:13:42.191Z,28.90
2022-09-24T08:18:44.683Z,29.00
2022-09-24T08:23:46.923Z,27.80
2022-09-24T08:28:51.343Z,27.50
2022-09-24T08:33:53.391Z,28.60
2022-09-24T08:38:55.615Z,27.40
2022-09-24T08:44:00.482Z,27.30
2022-09-24T08:49:05.113Z,26.90
2022-09-24T08:54:14.368Z,26.70
2022-09-24T08:59:38.456Z,26.70
2022-09-24T09:04:49.696Z,26.30
2022-09-24T09:10:15.389Z,26.70
2022-09-24T09:15:28.931Z,26.20
2022-09-24T09:20:32.602Z,26.20
2022-09-24T09:25:36.823Z,25.50
2022-09-24T09:30:43.431Z,25.80
2022-09-24T09:35:53.192Z,24.80
2022-09-24T09:41:32.989Z,24.60
2022-09-24T09:46:42.274Z,24.20
2022-09-24T09:51:46.945Z,24.20
2022-09-24T09:56:50.064Z,23.70
2022-09-24T10:01:55.854Z,23.40
2022-09-24T10:07:11.143Z,23.20
2022-09-24T10:12:21.174Z,23.00
2022-09-24T10:17:28.865Z,22.60
2022-09-24T10:22:31.314Z,22.70
2022-09-24T10:27:37.051Z,22.90
2022-09-24T10:32:40.690Z,22.60
2022-09-24T10:37:54.717Z,22.20
2022-09-24T10:43:02.188Z,22.60
2022-09-24T10:48:16.765Z,22.10
2022-09-24T10:53:49.841Z,21.40
2022-09-24T10:59:21.090Z,21.60
2022-09-24T11:04:37.931Z,21.70
2022-09-24T11:10:05.284Z,22.30
2022-09-24T11:15:29.148Z,21.70
2022-09-24T11:20:36.669Z,21.30
2022-09-24T11:25:44.451Z,20.30
2022-09-24T11:31:04.228Z,19.80
2022-09-24T11:36:36.743Z,19.50
2022-09-24T11:42:03.445Z,19.70
2022-09-24T11:47:14.224Z,19.10
2022-09-24T11:52:34.360Z,18.80
2022-09-24T11:57:49.096Z,18.90
2022-09-24T12:03:04.086Z,19.20
2022-09-24T12:08:56.176Z,18.80
2022-09-24T12:14:24.089Z,19.00
2022-09-24T12:19:41.786Z,18.70
2022-09-24T12:24:54.626Z,19.10
2022-09-24T12:30:34.033Z,18.60
2022-09-24T12:35:55.806Z,18.50
2022-09-24T12:41:23.257Z,17.40
2022-09-24T12:46:33.130Z,17.60
2022-09-24T12:51:38.177Z,17.20
2022-09-24T12:56:40.955Z,16.90
2022-09-24T13:01:43.146Z,16.30
2022-09-24T13:06:48.090Z,16.90
2022-09-24T13:12:03.797Z,16.90
2022-09-24T13:17:07.213Z,16.40
2022-09-24T13:22:34.454Z,16.10
2022-09-24T13:27:39.795Z,16.30
2022-09-24T13:32:59.568Z,16.30
2022-09-24T13:38:09.272Z,16.00
2022-09-24T13:43:17.829Z,16.00
2022-09-24T13:48:45.134Z,15.20
2022-09-24T13:53:54.968Z,15.10
2022-09-24T13:59:12.074Z,15.10
2022-09-24T14:04:22.675Z,15.30
2022-09-24T14:09:33.956Z,15.40
2022-09-24T14:14:36.301Z,15.60
2022-09-24T14:19:38.481Z,16.10
2022-09-24T14:24:48.131Z,16.70
2022-09-24T14:29:56.873Z,16.40
2022-09-24T14:35:03.586Z,16.40
2022-09-24T14:40:24.945Z,16.40
2022-09-24T14:45:34.246Z,17.00
2022-09-24T14:50:40.754Z,17.10
2022-09-24T14:55:46.453Z,18.00
2022-09-24T15:00:51.106Z,17.30
2022-09-24T15:06:01.587Z,17.50
2022-09-24T15:11:06.578Z,16.30
2022-09-24T15:16:40.069Z,15.90
2022-09-24T15:21:42.514Z,15.80
2022-09-24T15:26:46.131Z,15.80
2022-09-24T15:31:48.209Z,16.50
2022-09-24T15:36:56.654Z,16.70
2022-09-24T15:41:58.679Z,16.30
2022-09-24T15:47:00.778Z,16.50
2022-09-24T15:52:13.998Z,17.90
2022-09-24T15:57:16.591Z,18.20
2022-09-24T16:02:29.640Z,18.40
2022-09-24T16:07:31.672Z,19.10
2022-09-24T16:12:33.844Z,18.40
2022-09-24T16:17:36.013Z,18.40
2022-09-24T16:22:38.108Z,18.00
2022-09-24T16:27:40.785Z,17.60
2022-09-24T16:32:42.747Z,18.50
2022-09-24T16:37:44.817Z,18.80
2022-09-24T16:42:46.820Z,19.70
2022-09-24T16:47:48.964Z,20.50
2022-09-24T16:52:54.647Z,20.50
2022-09-24T16:57:57.096Z,21.60
2022-09-24T17:02:59.569Z,21.90
2022-09-24T17:08:01.793Z,22.00
2022-09-24T17:13:03.968Z,22.50
2022-09-24T17:18:06.094Z,22.90
2022-09-24T17:23:08.186Z,22.90
2022-09-24T17:28:12.024Z,23.90
2022-09-24T17:33:41.349Z,23.20
2022-09-24T17:38:36.789Z,24.00
2022-09-24T17:43:40.174Z,24.70
2022-09-24T17:48:44.710Z,24.60
2022-09-24T17:53:47.293Z,25.30
2022-09-24T17:58:49.730Z,24.60
2022-09-24T18:03:57.341Z,25.60
2022-09-24T18:09:00.936Z,26.00
2022-09-24T18:14:03.155Z,26.20
2022-09-24T18:19:05.729Z,26.40
2022-09-24T18:24:10.151Z,25.80
2022-09-24T18:29:15.394Z,26.70
2022-09-24T18:34:17.477Z,26.90
2022-09-24T18:39:25.051Z,26.50
2022-09-24T18:44:27.768Z,27.10
2022-09-24T18:49:29.796Z,27.30
2022-09-24T18:54:31.781Z,27.50
2022-09-24T18:59:44.564Z,27.20
2022-09-24T19:04:46.575Z,27.10
2022-09-24T19:09:48.601Z,27.50
2022-09-24T19:14:54.029Z,27.60
2022-09-24T19:19:56.156Z,25.30
2022-09-24T19:24:58.319Z,27.90
2022-09-24T19:30:01.016Z,28.60
2022-09-24T19:35:04.051Z,28.70
2022-09-24T19:40:07.178Z,28.90
2022-09-24T19:45:10.136Z,29.10
2022-09-24T19:50:17.497Z,28.90
2022-09-24T19:55:21.800Z,28.80
2022-09-24T20:00:26.965Z,28.80
2022-09-24T20:05:30.002Z,29.10
2022-09-24T20:10:36.142Z,29.20
2022-09-24T20:15:39.610Z,29.20
2022-09-24T20:20:41.778Z,29.30
2022-09-24T20:26:08.545Z,29.50
2022-09-24T20:31:12.572Z,29.50
2022-09-24T20:36:18.799Z,29.60
2022-09-24T20:41:25.117Z,29.80
2022-09-24T20:46:28.612Z,30.40
2022-09-24T20:51:33.575Z,30.40
2022-09-24T20:56:35.754Z,30.50
2022-09-24T21:01:39.092Z,30.00
2022-09-24T21:06:41.207Z,30.10
2022-09-24T21:11:43.909Z,30.70
2022-09-24T21:16:46.615Z,30.50
2022-09-24T21:21:48.692Z,30.40
2022-09-24T21:26:50.769Z,30.30
2022-09-24T21:31:52.857Z,30.50
2022-09-24T21:36:54.903Z,30.50
2022-09-24T21:41:59.138Z,30.40
2022-09-24T21:47:01.253Z,30.40
2022-09-24T21:52:05.821Z,30.60
2022-09-24T21:57:07.876Z,30.80
2022-09-24T22:02:11.028Z,31.00
2022-09-24T22:07:14.976Z,30.70
2022-09-24T22:12:17.183Z,31.50
2022-09-24T22:17:20.378Z,31.50
2022-09-24T22:22:22.401Z,31.40
2022-09-24T22:27:24.442Z,30.70
2022-09-24T22:32:26.551Z,30.70
2022-09-24T22:37:28.594Z,32.40
2022-09-24T22:42:30.695Z,30.70
2022-09-24T22:47:32.810Z,30.70
2022-09-24T22:52:35.843Z,31.50
2022-09-24T22:57:37.891Z,30.70
2022-09-24T23:02:39.984Z,30.70
2022-09-24T23:07:42.926Z,30.80
2022-09-24T23:12:44.959Z,31.60
2022-09-24T23:17:47.606Z,30.70
2022-09-24T23:22:49.727Z,32.80
2022-09-24T23:27:51.815Z,30.70
2022-09-24T23:37:56.495Z,31.00
2022-09-24T23:42:59.285Z,31.70
2022-09-24T23:48:01.514Z,31.70
2022-09-24T23:53:05.021Z,31.00
2022-09-24T23:58:07.147Z,31.30
